This is the latest recevied weather packets stored in our database for station/object KC0SIQ-13. If no packets are shown the sender has not sent any weather packets the latest 10 day(s).
| Time | Temp. | Humidity | Pressure | Rain* | Wind** | Luminosity | Snow |
|---|---|---|---|---|---|---|---|
| 1777584152 | 10.56° C | 50% | 1018 hPa | 0 mm | - | 120 W/m² | - |
| 1777583851 | 10.56° C | 50% | 1018 hPa | 0 mm | - | 125 W/m² | - |
| 1777583548 | 10.56° C | 49% | 1018.2 hPa | 0 mm | - | 129 W/m² | - |
| 1777583247 | 10.56° C | 51% | 1018.4 hPa | 0 mm | - | 134 W/m² | - |
| 1777582942 | 10.56° C | 50% | 1018.1 hPa | 0 mm | - | 131 W/m² | - |
| 1777582640 | 10.56° C | 50% | 1018.2 hPa | 0 mm | - | 137 W/m² | - |
| 1777582340 | 10° C | 51% | 1018.3 hPa | 0 mm | - | 153 W/m² | - |
| 1777582038 | 11.11° C | 51% | 1018.3 hPa | 0 mm | - | 188 W/m² | - |
| 1777581733 | 10.56° C | 49% | 1018.2 hPa | 0 mm | - | 205 W/m² | - |
| 1777581432 | 10.56° C | 50% | 1018.2 hPa | 0 mm | - | 182 W/m² | - |
| 1777581132 | 10.56° C | 50% | 1018.3 hPa | 0 mm | - | 167 W/m² | - |
| 1777580827 | 10.56° C | 52% | 1018.4 hPa | 0 mm | - | 159 W/m² | - |
| 1777580523 | 9.44° C | 55% | 1018.7 hPa | 0 mm | - | 146 W/m² | - |
| 1777580218 | 8.89° C | 56% | 1018.3 hPa | 0 mm | - | 175 W/m² | - |
| 1777579915 | 9.44° C | 55% | 1018.4 hPa | 0 mm | - | 203 W/m² | - |
| 1777579611 | 10.56° C | 51% | 1018.5 hPa | 0 mm | - | 228 W/m² | - |
| 1777579309 | 11.11° C | 51% | 1018.3 hPa | 0 mm | - | 267 W/m² | - |
| 1777579005 | 11.11° C | 53% | 1018.7 hPa | 0 mm | - | 247 W/m² | - |
| 1777578700 | 10.56° C | 52% | 1018.3 hPa | 0 mm | - | 212 W/m² | - |
| 1777578399 | 10.56° C | 55% | 1018.5 hPa | 0 mm | - | 225 W/m² | - |
| 1777578096 | 10° C | 55% | 1018.4 hPa | 0 mm | - | 223 W/m² | - |
| 1777577792 | 8.89° C | 60% | 1018.4 hPa | 0 mm | - | 294 W/m² | - |
| 1777577487 | 8.89° C | 61% | 1018.5 hPa | 0 mm | - | 317 W/m² | - |
| 1777577185 | 8.89° C | 62% | 1018.5 hPa | 0 mm | - | 310 W/m² | - |
| 1777576881 | 8.89° C | 62% | 1018.8 hPa | 0 mm | - | 260 W/m² | - |
* Rain latest hour (hover to see other rain measurements)
** Current wind speed in m/s (hover to see current wind gust speed)